Time;durP1;ratioP1;P1;durP2;ratioP2;P2;SDS_P1;SDS_P2;PMS_P1;PMS_P2;Temp;Humidity;BMP_temperature;BMP_pressure;BME280_temperature;BME280_humidity;BME280_pressure;Samples;Min_cycle;Max_cycle;Signal;HPM_P1;HPM_P2
2022/09/14 00:01:43;;;;;;;0.80;0.80;;;;;18.10;95193.00;;;;5115809;28;20281;-80
2022/09/14 00:04:13;;;;;;;1.23;0.60;;;;;18.10;95198.00;;;;5115548;28;20202;-81
2022/09/14 00:06:40;;;;;;;0.60;0.60;;;;;18.10;95208.00;;;;5115722;28;20181;-81
2022/09/14 00:09:11;;;;;;;0.67;0.67;;;;;18.10;95213.00;;;;5115432;28;20224;-78
2022/09/14 00:11:38;;;;;;;0.40;0.40;;;;;18.10;95194.00;;;;5115034;28;20210;-80
2022/09/14 00:14:05;;;;;;;0.57;0.57;;;;;18.00;95189.00;;;;5115026;28;20229;-79
2022/09/14 00:16:34;;;;;;;0.70;0.70;;;;;18.10;95185.00;;;;5114188;28;20228;-80
2022/09/14 00:19:04;;;;;;;0.50;0.50;;;;;18.10;95184.00;;;;5097130;28;20233;-81
2022/09/14 00:21:33;;;;;;;0.60;0.60;;;;;18.10;95179.00;;;;5115004;28;20189;-81
2022/09/14 00:24:02;;;;;;;2.20;1.10;;;;;18.20;95180.00;;;;5114794;28;20278;-76
2022/09/14 00:26:29;;;;;;;0.70;0.70;;;;;18.00;95180.00;;;;5114806;28;20656;-79
2022/09/14 00:28:58;;;;;;;0.80;0.80;;;;;18.00;95175.00;;;;5114749;28;20218;-75
2022/09/14 00:31:26;;;;;;;0.50;0.50;;;;;17.90;95162.00;;;;5114858;28;20243;-80
2022/09/14 00:33:53;;;;;;;0.50;0.50;;;;;17.80;95158.00;;;;5114653;28;20228;-81
2022/09/14 00:36:22;;;;;;;0.50;0.50;;;;;17.90;95157.00;;;;5096681;28;20230;-79
2022/09/14 00:38:50;;;;;;;0.50;0.50;;;;;17.90;95144.00;;;;5114667;28;20213;-79
2022/09/14 00:41:19;;;;;;;0.80;0.80;;;;;17.90;95136.00;;;;5114593;28;20217;-79
2022/09/14 00:43:53;;;;;;;0.63;0.63;;;;;17.90;95135.00;;;;5114541;28;20288;-77
2022/09/14 00:46:20;;;;;;;0.50;0.50;;;;;18.00;95134.00;;;;5114677;28;20644;-79
2022/09/14 00:48:51;;;;;;;0.70;0.70;;;;;18.00;95129.00;;;;5116308;28;20290;-79
2022/09/14 00:51:22;;;;;;;1.20;1.20;;;;;17.90;95132.00;;;;5115072;28;20198;-79
2022/09/14 00:53:50;;;;;;;0.63;0.63;;;;;17.90;95126.00;;;;5096922;28;20233;-80
2022/09/14 00:56:18;;;;;;;0.63;0.63;;;;;17.90;95121.00;;;;5097021;28;20202;-80
2022/09/14 00:58:48;;;;;;;0.60;0.60;;;;;17.80;95112.00;;;;5096790;28;20265;-78
2022/09/14 01:01:15;;;;;;;0.63;0.63;;;;;17.80;95109.00;;;;5114432;28;20220;-80
2022/09/14 01:03:42;;;;;;;0.60;0.60;;;;;17.80;95099.00;;;;5114313;28;20198;-79
2022/09/14 01:06:17;;;;;;;0.70;0.70;;;;;17.80;95096.00;;;;5114513;28;20218;-79
2022/09/14 01:08:57;;;;;;;0.70;0.70;;;;;17.80;95098.00;;;;5114849;28;20224;-79
2022/09/14 01:11:46;;;;;;;0.77;0.77;;;;;18.00;95152.00;;;;5117755;28;20221;-78
2022/09/14 01:14:20;;;;;;;0.60;0.60;;;;;17.60;95164.00;;;;5122108;28;20291;-79
2022/09/14 01:16:55;;;;;;;0.93;0.93;;;;;17.30;95198.00;;;;5116097;28;20309;-80
2022/09/14 01:19:32;;;;;;;0.73;0.73;;;;;17.40;95212.00;;;;5114077;28;20190;-79
2022/09/14 01:22:08;;;;;;;0.80;0.80;;;;;17.40;95214.00;;;;5113964;28;20240;-78
2022/09/14 01:24:43;;;;;;;0.83;0.83;;;;;17.10;95211.00;;;;5114013;28;20520;-76
2022/09/14 01:27:33;;;;;;;0.63;0.63;;;;;16.70;95198.00;;;;5113837;28;20209;-79
2022/09/14 01:30:05;;;;;;;0.77;0.77;;;;;16.70;95208.00;;;;5114108;28;20186;-78
2022/09/14 01:32:38;;;;;;;0.50;0.50;;;;;16.80;95206.00;;;;5114051;28;20500;-82
2022/09/14 01:35:13;;;;;;;0.60;0.60;;;;;16.70;95179.00;;;;5114167;28;20672;-81
2022/09/14 01:37:45;;;;;;;1.53;1.43;;;;;16.80;95158.00;;;;5114457;28;20213;-81
2022/09/14 01:40:19;;;;;;;0.70;0.70;;;;;16.90;95178.00;;;;5096551;28;20683;-78
2022/09/14 01:42:51;;;;;;;0.67;0.67;;;;;17.00;95164.00;;;;5113986;28;20192;-81
2022/09/14 01:45:20;;;;;;;0.50;0.50;;;;;17.00;95154.00;;;;5113739;28;20198;-81
2022/09/14 01:47:52;;;;;;;0.70;0.70;;;;;17.00;95160.00;;;;5113597;28;20265;-82
2022/09/14 01:50:23;;;;;;;0.83;0.80;;;;;17.00;95156.00;;;;5113871;28;20295;-80
2022/09/14 01:52:54;;;;;;;0.73;0.73;;;;;17.10;95161.00;;;;5113704;28;20190;-81
2022/09/14 01:55:24;;;;;;;0.60;0.60;;;;;17.10;95171.00;;;;5095624;28;20404;-81
2022/09/14 01:57:56;;;;;;;1.00;1.00;;;;;17.10;95163.00;;;;5113556;28;20507;-82
2022/09/14 02:00:23;;;;;;;0.50;0.50;;;;;17.20;95141.00;;;;5113449;28;20186;-81
2022/09/14 02:02:53;;;;;;;0.60;0.60;;;;;17.20;95143.00;;;;5113895;28;20198;-81
2022/09/14 02:05:28;;;;;;;0.70;0.70;;;;;17.20;95142.00;;;;5113867;28;20194;-79
2022/09/14 02:07:55;;;;;;;0.87;0.87;;;;;17.20;95146.00;;;;5113779;28;20242;-82
2022/09/14 02:10:23;;;;;;;0.80;0.80;;;;;17.20;95146.00;;;;5113652;28;20201;-82
2022/09/14 02:12:50;;;;;;;1.10;0.67;;;;;17.30;95168.00;;;;5113918;28;20210;-81
2022/09/14 02:15:18;;;;;;;0.93;0.93;;;;;17.20;95157.00;;;;5113709;28;20221;-77
2022/09/14 02:17:45;;;;;;;0.60;0.60;;;;;16.90;95165.00;;;;5113563;28;20217;-80
2022/09/14 02:20:18;;;;;;;0.70;0.70;;;;;16.90;95164.00;;;;5096220;28;20213;-82
2022/09/14 02:22:47;;;;;;;1.03;1.03;;;;;16.80;95165.00;;;;5097253;28;20316;-81
2022/09/14 02:25:13;;;;;;;1.53;1.43;;;;;16.80;95170.00;;;;5113748;28;20198;-81
2022/09/14 02:27:40;;;;;;;0.63;0.63;;;;;16.70;95178.00;;;;5095798;28;20537;-81
2022/09/14 02:30:08;;;;;;;0.70;0.70;;;;;16.70;95184.00;;;;5113636;28;20187;-81
2022/09/14 02:32:46;;;;;;;0.80;0.80;;;;;16.80;95181.00;;;;5113787;28;20293;-81
2022/09/14 02:35:19;;;;;;;8.33;1.30;;;;;16.90;95172.00;;;;5095257;28;20225;-81
2022/09/14 02:37:55;;;;;;;0.77;0.77;;;;;16.90;95155.00;;;;5113279;28;20247;-82
2022/09/14 02:40:28;;;;;;;0.77;0.77;;;;;17.00;95161.00;;;;5116371;28;20633;-80
2022/09/14 02:43:02;;;;;;;0.70;0.70;;;;;17.00;95157.00;;;;5116987;28;20256;-81
2022/09/14 02:45:36;;;;;;;1.00;1.00;;;;;17.00;95172.00;;;;5116912;28;20213;-82
2022/09/14 02:48:12;;;;;;;1.47;1.37;;;;;17.00;95166.00;;;;5116788;28;20258;-84
2022/09/14 02:50:44;;;;;;;0.73;0.73;;;;;17.00;95165.00;;;;5099102;28;20271;-82
2022/09/14 02:53:16;;;;;;;0.80;0.80;;;;;17.00;95157.00;;;;5117434;28;20182;-81
2022/09/14 02:55:48;;;;;;;0.60;0.60;;;;;17.10;95142.00;;;;5116831;28;20194;-79
2022/09/14 02:58:15;;;;;;;0.70;0.70;;;;;17.00;95137.00;;;;5116730;28;20623;-83
2022/09/14 03:00:44;;;;;;;1.53;1.43;;;;;16.90;95125.00;;;;5098701;28;20208;-81
2022/09/14 03:03:17;;;;;;;0.80;0.80;;;;;16.90;95121.00;;;;5116821;28;20656;-81
2022/09/14 03:05:44;;;;;;;0.50;0.50;;;;;16.90;95114.00;;;;5116973;28;20204;-83
2022/09/14 03:08:12;;;;;;;0.60;0.60;;;;;17.00;95116.00;;;;5116575;28;20232;-81
2022/09/14 03:10:41;;;;;;;0.90;0.90;;;;;16.90;95106.00;;;;5117712;28;20300;-82
2022/09/14 03:13:11;;;;;;;0.60;0.60;;;;;16.90;95091.00;;;;5121225;28;20265;-81
2022/09/14 03:15:38;;;;;;;1.13;1.13;;;;;17.00;95103.00;;;;5119543;28;20310;-77
2022/09/14 03:18:06;;;;;;;1.10;1.10;;;;;16.90;95102.00;;;;5116888;28;20221;-76
2022/09/14 03:20:34;;;;;;;0.80;0.80;;;;;16.90;95109.00;;;;5099270;28;20202;-81
2022/09/14 03:23:02;;;;;;;0.60;0.60;;;;;16.80;95108.00;;;;5117903;28;20692;-82
2022/09/14 03:25:30;;;;;;;0.60;0.60;;;;;16.90;95105.00;;;;5125445;28;20218;-79
2022/09/14 03:27:58;;;;;;;1.00;1.00;;;;;17.00;95102.00;;;;5119722;28;20186;-81
2022/09/14 03:30:25;;;;;;;0.87;0.87;;;;;17.00;95093.00;;;;5101200;28;20225;-82
2022/09/14 03:32:52;;;;;;;0.60;0.60;;;;;17.10;95086.00;;;;5119216;28;20234;-83
2022/09/14 03:35:21;;;;;;;0.50;0.50;;;;;17.10;95070.00;;;;5120742;28;20225;-84
2022/09/14 03:37:49;;;;;;;0.70;0.70;;;;;17.10;95061.00;;;;5118321;28;20213;-82
2022/09/14 03:40:16;;;;;;;0.53;0.53;;;;;17.10;95067.00;;;;5099360;28;20259;-83
2022/09/14 03:42:44;;;;;;;0.80;0.80;;;;;17.20;95067.00;;;;5116850;28;20202;-83
2022/09/14 03:45:11;;;;;;;2.23;1.27;;;;;17.30;95070.00;;;;5116817;28;20193;-83
2022/09/14 03:47:38;;;;;;;1.10;1.10;;;;;17.40;95068.00;;;;5116440;28;20210;-83
2022/09/14 03:50:08;;;;;;;1.00;0.93;;;;;17.40;95067.00;;;;5115686;28;20199;-82
2022/09/14 03:52:36;;;;;;;0.60;0.60;;;;;17.30;95063.00;;;;5115812;28;20275;-83
2022/09/14 03:55:06;;;;;;;0.57;0.57;;;;;17.40;95058.00;;;;5116397;28;20672;-83
2022/09/14 03:57:33;;;;;;;0.83;0.83;;;;;17.30;95058.00;;;;5116003;28;20185;-82
2022/09/14 04:00:00;;;;;;;0.90;0.90;;;;;17.30;95060.00;;;;5116229;28;20511;-83
2022/09/14 04:02:28;;;;;;;0.87;0.87;;;;;17.30;95054.00;;;;5116633;28;20190;-83
2022/09/14 04:04:55;;;;;;;0.90;0.90;;;;;17.30;95059.00;;;;5116174;28;20673;-78
2022/09/14 04:07:22;;;;;;;0.90;0.90;;;;;17.20;95061.00;;;;5116264;28;20194;-83
2022/09/14 04:09:51;;;;;;;0.70;0.70;;;;;17.20;95063.00;;;;5116179;28;20210;-83
2022/09/14 04:12:18;;;;;;;1.00;0.80;;;;;17.10;95062.00;;;;5116455;28;20201;-83
2022/09/14 04:14:45;;;;;;;0.70;0.70;;;;;17.20;95063.00;;;;5116066;28;20226;-84
2022/09/14 04:17:11;;;;;;;0.80;0.80;;;;;17.20;95059.00;;;;5116641;28;20206;-84
2022/09/14 04:19:40;;;;;;;2.97;1.37;;;;;17.00;95067.00;;;;5116154;28;20194;-78
2022/09/14 04:22:07;;;;;;;1.40;1.27;;;;;17.10;95064.00;;;;5116659;28;20209;-84
2022/09/14 04:24:34;;;;;;;0.90;0.80;;;;;17.10;95062.00;;;;5117404;28;20215;-83
2022/09/14 04:27:00;;;;;;;0.97;0.97;;;;;17.10;95070.00;;;;5119844;28;20186;-81
2022/09/14 04:29:29;;;;;;;0.70;0.70;;;;;17.20;95070.00;;;;5129455;28;20194;-81
2022/09/14 04:31:56;;;;;;;0.60;0.60;;;;;17.30;95082.00;;;;5120172;28;20194;-82
2022/09/14 04:34:23;;;;;;;0.60;0.60;;;;;17.40;95086.00;;;;5115006;28;20214;-82
2022/09/14 04:36:50;;;;;;;0.50;0.50;;;;;17.50;95074.00;;;;5115486;28;20193;-83
2022/09/14 04:39:17;;;;;;;0.83;0.83;;;;;17.30;95078.00;;;;5115976;28;20198;-84
2022/09/14 04:41:44;;;;;;;0.60;0.60;;;;;17.50;95078.00;;;;5097401;28;20233;-84
2022/09/14 04:44:11;;;;;;;0.60;0.60;;;;;17.50;95082.00;;;;5115854;28;20286;-84
2022/09/14 04:46:40;;;;;;;0.57;0.57;;;;;17.60;95080.00;;;;5116854;28;20720;-84
2022/09/14 04:49:07;;;;;;;0.80;0.80;;;;;17.50;95089.00;;;;5117754;28;20190;-84
2022/09/14 04:51:35;;;;;;;0.80;0.80;;;;;17.50;95082.00;;;;5116697;28;20218;-83
2022/09/14 04:54:03;;;;;;;0.60;0.60;;;;;17.50;95082.00;;;;5115713;28;20241;-83
2022/09/14 04:56:32;;;;;;;0.60;0.60;;;;;17.60;95086.00;;;;5115964;28;20225;-79
2022/09/14 04:59:02;;;;;;;0.60;0.60;;;;;17.60;95085.00;;;;5098083;28;20314;-84
2022/09/14 05:01:33;;;;;;;0.80;0.80;;;;;17.50;95086.00;;;;5116297;28;20206;-83
2022/09/14 05:04:04;;;;;;;0.50;0.50;;;;;17.50;95089.00;;;;5115945;28;20228;-84
2022/09/14 05:06:34;;;;;;;0.70;0.70;;;;;17.50;95083.00;;;;5115880;28;20225;-83
2022/09/14 05:09:02;;;;;;;0.70;0.70;;;;;17.50;95075.00;;;;5115112;28;20193;-80
2022/09/14 05:11:32;;;;;;;0.90;0.90;;;;;17.50;95080.00;;;;5114997;28;20271;-83
2022/09/14 05:14:02;;;;;;;0.90;0.90;;;;;17.60;95082.00;;;;5115127;28;20225;-83
2022/09/14 05:16:30;;;;;;;0.63;0.63;;;;;17.70;95082.00;;;;5115238;28;20214;-82
2022/09/14 05:19:00;;;;;;;1.07;1.07;;;;;17.60;95075.00;;;;5121329;28;20194;-83
2022/09/14 05:21:30;;;;;;;0.80;0.80;;;;;17.50;95071.00;;;;5122397;28;20218;-84
2022/09/14 05:23:58;;;;;;;0.80;0.80;;;;;17.50;95089.00;;;;5116311;28;20206;-81
2022/09/14 05:26:27;;;;;;;1.20;1.20;;;;;17.60;95084.00;;;;5114113;28;20282;-81
2022/09/14 05:28:59;;;;;;;0.87;0.87;;;;;17.50;95090.00;;;;5114347;28;20665;-80
2022/09/14 05:31:27;;;;;;;0.80;0.80;;;;;17.50;95091.00;;;;5096601;28;20353;-78
2022/09/14 05:33:54;;;;;;;4.93;1.37;;;;;17.60;95090.00;;;;5114167;28;20311;-83
2022/09/14 05:36:21;;;;;;;0.90;0.90;;;;;17.60;95090.00;;;;5114344;28;20218;-82
2022/09/14 05:38:49;;;;;;;0.87;0.87;;;;;17.60;95080.00;;;;5096438;28;20208;-85
2022/09/14 05:41:16;;;;;;;1.47;1.37;;;;;17.60;95082.00;;;;5113822;28;20229;-62
2022/09/14 05:43:45;;;;;;;0.90;0.90;;;;;17.70;95054.00;;;;5113680;28;20610;-65
2022/09/14 05:46:14;;;;;;;0.60;0.60;;;;;17.70;95048.00;;;;5095643;28;20629;-65
2022/09/14 05:48:41;;;;;;;0.93;0.93;;;;;17.90;95064.00;;;;5114110;28;20202;-65
2022/09/14 05:51:12;;;;;;;0.70;0.70;;;;;17.90;95064.00;;;;5113848;28;20201;-66
2022/09/14 05:53:39;;;;;;;0.93;0.93;;;;;18.00;95079.00;;;;5113523;28;20247;-65
2022/09/14 05:56:09;;;;;;;1.50;1.40;;;;;17.90;95087.00;;;;5113564;28;20190;-71
2022/09/14 05:58:37;;;;;;;0.70;0.70;;;;;17.90;95086.00;;;;5113465;28;20214;-76
2022/09/14 06:01:08;;;;;;;1.00;1.00;;;;;17.90;95100.00;;;;5117432;28;20254;-74
2022/09/14 06:03:35;;;;;;;1.00;1.00;;;;;17.80;95092.00;;;;5116133;28;20190;-75
2022/09/14 06:06:05;;;;;;;0.80;0.80;;;;;17.90;95087.00;;;;5116427;28;20189;-74
2022/09/14 06:08:32;;;;;;;0.53;0.53;;;;;18.00;95084.00;;;;5116236;28;20255;-75
2022/09/14 06:11:03;;;;;;;0.60;0.60;;;;;18.10;95090.00;;;;5116072;28;20737;-76
2022/09/14 06:13:31;;;;;;;1.80;1.00;;;;;18.20;95093.00;;;;5116278;28;20546;-76
2022/09/14 06:16:03;;;;;;;0.83;0.83;;;;;18.20;95092.00;;;;5119421;28;20259;-75
2022/09/14 06:18:31;;;;;;;1.00;1.00;;;;;18.30;95105.00;;;;5119696;28;20337;-76
2022/09/14 06:20:58;;;;;;;0.93;0.93;;;;;18.30;95103.00;;;;5117201;28;20710;-77
2022/09/14 06:23:26;;;;;;;0.73;0.73;;;;;18.40;95107.00;;;;5116905;28;20321;-70
2022/09/14 06:25:54;;;;;;;2.23;1.13;;;;;18.40;95113.00;;;;5117035;28;20190;-75
2022/09/14 06:28:21;;;;;;;0.70;0.70;;;;;18.30;95110.00;;;;5116850;28;20232;-75
2022/09/14 06:30:48;;;;;;;0.57;0.57;;;;;18.40;95108.00;;;;5099094;28;20657;-75
2022/09/14 06:33:15;;;;;;;0.73;0.73;;;;;18.40;95107.00;;;;5116785;28;20214;-75
2022/09/14 06:35:45;;;;;;;0.73;0.73;;;;;18.30;95103.00;;;;5116601;28;20222;-75
2022/09/14 06:38:13;;;;;;;1.07;1.07;;;;;18.30;95083.00;;;;5116568;28;20190;-75
2022/09/14 06:40:51;;;;;;;2.63;0.93;;;;;18.30;95087.00;;;;5116972;28;20217;-75
2022/09/14 06:43:18;;;;;;;0.77;0.77;;;;;18.30;95082.00;;;;5116647;28;20324;-74
2022/09/14 06:45:54;;;;;;;1.73;1.60;;;;;18.30;95073.00;;;;5116423;28;20221;-74
2022/09/14 06:48:21;;;;;;;0.90;0.90;;;;;18.40;95086.00;;;;5116418;28;20727;-74
2022/09/14 06:50:47;;;;;;;0.77;0.77;;;;;18.30;95087.00;;;;5116381;28;20222;-72
2022/09/14 06:53:14;;;;;;;1.30;1.30;;;;;18.50;95093.00;;;;5116432;28;20194;-76
2022/09/14 06:55:43;;;;;;;0.73;0.73;;;;;18.50;95096.00;;;;5116390;28;20236;-76
2022/09/14 06:58:10;;;;;;;0.90;0.90;;;;;18.60;95097.00;;;;5116309;28;20284;-76
2022/09/14 07:00:40;;;;;;;0.67;0.67;;;;;18.80;95104.00;;;;5116273;28;20259;-76
2022/09/14 07:03:08;;;;;;;0.90;0.90;;;;;18.90;95100.00;;;;5098192;28;20301;-76
2022/09/14 07:05:35;;;;;;;0.90;0.90;;;;;19.00;95096.00;;;;5116052;28;20625;-75
2022/09/14 07:08:02;;;;;;;0.97;0.97;;;;;19.00;95100.00;;;;5115990;28;20308;-76
2022/09/14 07:10:29;;;;;;;0.87;0.87;;;;;19.10;95103.00;;;;5116069;28;20204;-75
2022/09/14 07:12:59;;;;;;;1.40;1.30;;;;;19.20;95111.00;;;;5115915;28;20241;-76
2022/09/14 07:15:26;;;;;;;1.23;1.10;;;;;19.10;95108.00;;;;5115844;28;20660;-76
2022/09/14 07:17:53;;;;;;;0.50;0.50;;;;;19.20;95115.00;;;;5115924;28;20190;-73
2022/09/14 07:20:22;;;;;;;0.93;0.93;;;;;19.20;95108.00;;;;5115835;28;20237;-75
2022/09/14 07:22:49;;;;;;;0.60;0.60;;;;;19.10;95102.00;;;;5116178;28;20206;-76
2022/09/14 07:25:18;;;;;;;0.67;0.67;;;;;19.30;95096.00;;;;5116121;28;20232;-75
2022/09/14 07:27:45;;;;;;;0.77;0.77;;;;;19.30;95095.00;;;;5099439;28;20634;-76
2022/09/14 07:30:12;;;;;;;0.70;0.70;;;;;19.40;95093.00;;;;5115692;28;20200;-75
2022/09/14 07:32:42;;;;;;;0.67;0.67;;;;;19.60;95105.00;;;;5115814;28;20206;-74
2022/09/14 07:35:11;;;;;;;0.50;0.50;;;;;19.40;95107.00;;;;5097571;28;20320;-76
2022/09/14 07:37:38;;;;;;;2.00;1.00;;;;;19.40;95114.00;;;;5115452;28;20664;-76
2022/09/14 07:40:07;;;;;;;0.60;0.60;;;;;19.50;95110.00;;;;5115571;28;20726;-76
2022/09/14 07:42:33;;;;;;;0.50;0.50;;;;;19.70;95114.00;;;;5115595;28;20521;-74
2022/09/14 07:45:00;;;;;;;0.63;0.63;;;;;19.90;95117.00;;;;5115494;28;20239;-73
2022/09/14 07:47:27;;;;;;;1.17;1.17;;;;;19.90;95124.00;;;;5097406;28;20200;-73
2022/09/14 07:49:54;;;;;;;0.40;0.40;;;;;20.20;95131.00;;;;5115426;28;20202;-75
2022/09/14 07:52:21;;;;;;;0.90;0.90;;;;;20.20;95127.00;;;;5115303;28;20186;-75
2022/09/14 07:54:48;;;;;;;1.00;0.73;;;;;20.20;95122.00;;;;5115215;28;20226;-76
2022/09/14 07:57:15;;;;;;;0.50;0.50;;;;;20.50;95121.00;;;;5115242;28;20622;-75
2022/09/14 07:59:42;;;;;;;1.07;1.07;;;;;20.70;95114.00;;;;5115144;28;20684;-76
2022/09/14 08:02:10;;;;;;;0.63;0.63;;;;;20.90;95119.00;;;;5115247;28;20494;-75
2022/09/14 08:04:38;;;;;;;0.93;0.70;;;;;20.90;95130.00;;;;5115212;28;20194;-73
2022/09/14 08:07:05;;;;;;;1.63;1.53;;;;;20.80;95136.00;;;;5115198;28;20248;-75
2022/09/14 08:09:34;;;;;;;1.37;1.27;;;;;20.70;95138.00;;;;5115214;28;20198;-76
2022/09/14 08:12:04;;;;;;;1.10;1.00;;;;;21.00;95143.00;;;;5115175;28;20228;-76
2022/09/14 08:14:31;;;;;;;1.10;1.10;;;;;20.60;95140.00;;;;5114890;28;20221;-74
2022/09/14 08:16:59;;;;;;;0.77;0.77;;;;;20.60;95155.00;;;;5114988;28;20222;-74
2022/09/14 08:19:26;;;;;;;0.60;0.60;;;;;20.80;95168.00;;;;5114944;28;20198;-74
2022/09/14 08:21:53;;;;;;;0.77;0.77;;;;;20.80;95179.00;;;;5096889;28;20186;-72
2022/09/14 08:24:21;;;;;;;0.50;0.50;;;;;20.90;95191.00;;;;5114813;28;20202;-73
2022/09/14 08:26:48;;;;;;;0.80;0.80;;;;;20.70;95188.00;;;;5114830;28;20633;-74
2022/09/14 08:29:17;;;;;;;0.60;0.60;;;;;20.60;95191.00;;;;5114795;28;20653;-75
2022/09/14 08:31:45;;;;;;;0.77;0.77;;;;;20.80;95185.00;;;;5114834;28;20200;-74
2022/09/14 08:34:15;;;;;;;0.80;0.80;;;;;20.90;95175.00;;;;5114572;28;20231;-74
2022/09/14 08:36:43;;;;;;;0.50;0.50;;;;;21.30;95177.00;;;;5114011;28;20197;-74
2022/09/14 08:39:13;;;;;;;0.67;0.67;;;;;21.50;95177.00;;;;5114796;28;20191;-75
2022/09/14 08:41:45;;;;;;;0.70;0.70;;;;;21.50;95189.00;;;;5114808;28;20190;-75
2022/09/14 08:44:19;;;;;;;0.50;0.50;;;;;21.30;95177.00;;;;5114532;28;20292;-75
2022/09/14 08:46:50;;;;;;;0.77;0.77;;;;;21.50;95181.00;;;;5114497;28;20225;-75
2022/09/14 08:49:24;;;;;;;1.02;1.02;;;;;21.60;95173.00;;;;5114544;28;20238;-75
2022/09/14 08:51:54;;;;;;;0.40;0.40;;;;;21.80;95179.00;;;;5096479;28;20224;-76
2022/09/14 08:54:21;;;;;;;0.50;0.50;;;;;21.90;95171.00;;;;5114283;28;20226;-76
2022/09/14 08:56:57;;;;;;;4.05;1.33;;;;;21.90;95176.00;;;;5096215;28;20226;-77
2022/09/14 08:59:35;;;;;;;0.65;0.65;;;;;21.50;95181.00;;;;5114269;28;20238;-75
2022/09/14 09:02:19;;;;;;;0.43;0.43;;;;;21.70;95147.00;;;;5114343;28;20232;-76
2022/09/14 09:04:52;;;;;;;0.68;0.68;;;;;21.40;95191.00;;;;5114250;28;20201;-76
2022/09/14 09:07:27;;;;;;;0.57;0.57;;;;;21.50;95186.00;;;;5114243;28;20182;-76
2022/09/14 09:09:57;;;;;;;0.70;0.70;;;;;21.30;95197.00;;;;5114181;28;20268;-74
2022/09/14 09:12:29;;;;;;;0.60;0.60;;;;;21.60;95189.00;;;;5114042;28;20194;-73
2022/09/14 09:15:00;;;;;;;0.80;0.80;;;;;22.00;95187.00;;;;5113925;28;20217;-72
2022/09/14 09:17:32;;;;;;;0.73;0.73;;;;;22.40;95178.00;;;;5114047;28;20194;-76
2022/09/14 09:20:06;;;;;;;0.60;0.60;;;;;22.60;95178.00;;;;5113930;28;20241;-74
2022/09/14 09:22:39;;;;;;;0.65;0.65;;;;;22.90;95175.00;;;;5113998;28;20231;-75
2022/09/14 09:25:15;;;;;;;0.63;0.63;;;;;22.90;95181.00;;;;5113860;28;20228;-75
2022/09/14 09:27:41;;;;;;;1.10;1.08;;;;;23.00;95175.00;;;;5096041;28;20197;-74
2022/09/14 09:30:13;;;;;;;0.82;0.82;;;;;23.00;95161.00;;;;5113973;28;20268;-73
2022/09/14 09:32:41;;;;;;;0.70;0.70;;;;;23.20;95151.00;;;;5113808;28;20225;-76
2022/09/14 09:35:12;;;;;;;0.63;0.63;;;;;23.20;95155.00;;;;5095724;28;20222;-77
2022/09/14 09:37:40;;;;;;;0.73;0.73;;;;;23.30;95144.00;;;;5114033;28;20217;-76
2022/09/14 09:40:15;;;;;;;0.80;0.80;;;;;23.40;95141.00;;;;5113791;28;20202;-75
2022/09/14 09:43:04;;;;;;;0.90;0.90;;;;;23.30;95134.00;;;;5113625;28;20243;-75
2022/09/14 09:45:47;;;;;;;0.52;0.52;;;;;23.40;95130.00;;;;5113875;28;20201;-74
2022/09/14 09:48:15;;;;;;;0.50;0.50;;;;;23.40;95128.00;;;;5113899;28;20186;-77
2022/09/14 09:50:49;;;;;;;0.70;0.70;;;;;23.70;95130.00;;;;5117528;28;20276;-76
2022/09/14 09:53:20;;;;;;;0.52;0.52;;;;;23.60;95117.00;;;;5117595;28;20190;-75
2022/09/14 09:55:48;;;;;;;0.73;0.73;;;;;23.20;95129.00;;;;5117295;28;20228;-78
2022/09/14 09:58:30;;;;;;;0.82;0.82;;;;;23.20;95116.00;;;;5121239;28;20198;-76
2022/09/14 10:00:59;;;;;;;3.08;1.48;;;;;23.40;95123.00;;;;5117087;28;20275;-77
2022/09/14 10:03:32;;;;;;;1.10;1.10;;;;;23.40;95112.00;;;;5117145;28;20273;-76
2022/09/14 10:06:06;;;;;;;0.93;0.93;;;;;23.70;95116.00;;;;5117316;28;20228;-76
2022/09/14 10:08:38;;;;;;;0.50;0.50;;;;;23.90;95115.00;;;;5117209;28;20244;-76
2022/09/14 10:11:06;;;;;;;0.85;0.85;;;;;23.80;95124.00;;;;5117043;28;20190;-76
2022/09/14 10:13:35;;;;;;;0.70;0.70;;;;;23.30;95100.00;;;;5099278;28;20645;-74
2022/09/14 10:16:14;;;;;;;0.65;0.65;;;;;22.90;95110.00;;;;5117080;28;20218;-76
2022/09/14 10:18:44;;;;;;;0.70;0.70;;;;;23.40;95083.00;;;;5116980;28;20281;-76
2022/09/14 10:21:12;;;;;;;5.05;0.95;;;;;23.60;95084.00;;;;5117092;28;20467;-75
2022/09/14 10:23:39;;;;;;;0.60;0.60;;;;;23.60;95073.00;;;;5116907;28;20707;-75
2022/09/14 10:26:33;;;;;;;0.82;0.82;;;;;23.70;95083.00;;;;5116914;28;20209;-76
2022/09/14 10:29:23;;;;;;;0.50;0.50;;;;;23.60;95080.00;;;;5116935;28;20242;-78
2022/09/14 10:31:55;;;;;;;0.50;0.50;;;;;23.60;95073.00;;;;5117060;28;20219;-75
2022/09/14 10:34:22;;;;;;;0.98;0.90;;;;;24.00;95067.00;;;;5116916;28;20228;-76
2022/09/14 10:36:58;;;;;;;0.60;0.60;;;;;24.00;95056.00;;;;5099071;28;20198;-76
2022/09/14 10:39:31;;;;;;;0.50;0.50;;;;;23.80;95049.00;;;;5116715;28;20209;-75
2022/09/14 10:42:07;;;;;;;0.80;0.80;;;;;23.70;95035.00;;;;5116683;28;20284;-75
2022/09/14 10:44:53;;;;;;;0.90;0.90;;;;;24.10;95034.00;;;;5116777;28;20206;-76
2022/09/14 10:47:37;;;;;;;0.50;0.50;;;;;24.40;95025.00;;;;5116578;28;20213;-76
2022/09/14 10:50:33;;;;;;;0.65;0.65;;;;;24.50;95025.00;;;;5117315;28;20204;-74
2022/09/14 10:53:11;;;;;;;0.73;0.73;;;;;24.10;95032.00;;;;5099751;28;20222;-72
2022/09/14 10:55:46;;;;;;;0.70;0.70;;;;;23.90;95029.00;;;;5116395;28;20297;-75
2022/09/14 10:58:30;;;;;;;0.90;0.90;;;;;23.90;95025.00;;;;5116369;28;20221;-77
2022/09/14 11:01:11;;;;;;;0.90;0.90;;;;;24.00;95019.00;;;;5115946;28;20210;-71
2022/09/14 11:03:53;;;;;;;0.50;0.50;;;;;24.00;95016.00;;;;5116207;28;20275;-76
2022/09/14 11:06:32;;;;;;;0.57;0.57;;;;;24.30;95006.00;;;;5116337;28;20280;-75
2022/09/14 11:09:02;;;;;;;0.68;0.68;;;;;24.60;95021.00;;;;5116653;28;20221;-75
2022/09/14 11:11:41;;;;;;;0.75;0.75;;;;;24.40;95007.00;;;;5116529;28;20530;-72
2022/09/14 11:14:33;;;;;;;0.63;0.63;;;;;24.70;95003.00;;;;5116161;28;20222;-73
2022/09/14 11:17:19;;;;;;;0.65;0.65;;;;;24.50;95010.00;;;;5116236;28;20186;-75
2022/09/14 11:19:56;;;;;;;0.63;0.63;;;;;24.70;95023.00;;;;5115974;28;20270;-73
2022/09/14 11:22:34;;;;;;;0.70;0.70;;;;;24.50;95024.00;;;;5116049;28;20193;-79
2022/09/14 11:25:08;;;;;;;2.13;1.10;;;;;24.50;95034.00;;;;5116037;28;20208;-69
2022/09/14 11:27:40;;;;;;;0.65;0.65;;;;;24.40;95031.00;;;;5115941;28;20186;-67
2022/09/14 11:30:14;;;;;;;0.80;0.80;;;;;24.20;95030.00;;;;5115807;28;20208;-73
2022/09/14 11:32:44;;;;;;;0.65;0.65;;;;;23.90;95023.00;;;;5115796;28;20250;-70
2022/09/14 11:35:16;;;;;;;0.60;0.60;;;;;23.90;95022.00;;;;5115665;28;20218;-61
2022/09/14 11:37:52;;;;;;;0.68;0.68;;;;;24.00;95017.00;;;;5115615;28;20213;-68
2022/09/14 11:40:23;;;;;;;0.50;0.50;;;;;24.30;95023.00;;;;5115756;28;20202;-65
2022/09/14 11:42:56;;;;;;;1.30;1.30;;;;;24.30;95018.00;;;;5097769;28;20541;-61
2022/09/14 11:45:30;;;;;;;0.75;0.75;;;;;23.90;95020.00;;;;5115634;28;20692;-76
2022/09/14 11:48:14;;;;;;;0.50;0.50;;;;;24.20;95027.00;;;;5115870;28;20564;-73
2022/09/14 11:50:44;;;;;;;0.40;0.40;;;;;23.70;95052.00;;;;5115680;28;20193;-77
2022/09/14 11:53:13;;;;;;;0.75;0.75;;;;;23.70;95040.00;;;;5115661;28;20281;-76
2022/09/14 11:55:45;;;;;;;0.50;0.50;;;;;23.60;95058.00;;;;5115337;28;20218;-76
2022/09/14 11:58:18;;;;;;;0.50;0.50;;;;;23.40;95043.00;;;;5115507;28;20206;-71
2022/09/14 12:01:04;;;;;;;0.82;0.82;;;;;23.30;95055.00;;;;5115436;28;20225;-74
2022/09/14 12:04:03;;;;;;;0.50;0.50;;;;;23.30;95063.00;;;;5097577;28;20214;-76
2022/09/14 12:06:46;;;;;;;0.55;0.55;;;;;22.90;95077.00;;;;5115386;28;20366;-69
2022/09/14 12:09:48;;;;;;;0.52;0.52;;;;;22.90;95071.00;;;;5115353;28;20181;-76
2022/09/14 12:12:36;;;;;;;0.50;0.50;;;;;22.80;95071.00;;;;5012297;28;20224;-75
2022/09/14 12:15:15;;;;;;;0.40;0.40;;;;;22.30;95100.00;;;;5013020;28;20225;-74
2022/09/14 12:17:44;;;;;;;1.40;1.30;;;;;21.70;95100.00;;;;5083438;28;20248;-73
2022/09/14 12:20:33;;;;;;;0.80;0.80;;;;;21.30;95111.00;;;;5097379;28;20206;-73
2022/09/14 12:23:29;;;;;;;0.82;0.82;;;;;20.90;95123.00;;;;5097102;28;20313;-72
2022/09/14 12:26:34;;;;;;;0.50;0.50;;;;;20.30;95146.00;;;;5112947;28;20369;-70
2022/09/14 12:29:05;;;;;;;0.77;0.77;;;;;20.00;95157.00;;;;5114854;28;20226;-70
2022/09/14 12:31:57;;;;;;;0.70;0.70;;;;;19.80;95159.00;;;;5114762;28;20221;-68
2022/09/14 12:34:25;;;;;;;0.50;0.50;;;;;19.50;95170.00;;;;5114672;28;20218;-69
2022/09/14 12:37:26;;;;;;;0.67;0.67;;;;;19.20;95177.00;;;;5114970;28;20233;-68
2022/09/14 12:40:23;;;;;;;0.50;0.50;;;;;19.30;95167.00;;;;5114747;28;20280;-68